createdAt,value
2019-03-03T00:01:14.712Z,44.45
2019-03-03T00:04:10.194Z,51.77
2019-03-03T00:07:06.360Z,51.28
2019-03-03T00:10:00.819Z,48.02
2019-03-03T00:12:56.775Z,49.63
2019-03-03T00:15:51.902Z,54.13
2019-03-03T00:18:47.385Z,47.60
2019-03-03T00:21:43.108Z,51.68
2019-03-03T00:24:38.343Z,48.13
2019-03-03T00:27:33.499Z,49.98
2019-03-03T00:30:28.964Z,47.10
2019-03-03T00:33:23.890Z,48.10
2019-03-03T00:36:20.071Z,52.58
2019-03-03T00:39:24.759Z,52.75
2019-03-03T00:42:46.589Z,46.87
2019-03-03T00:46:14.346Z,42.45
2019-03-03T00:49:33.879Z,45.35
2019-03-03T00:52:35.139Z,56.00
2019-03-03T00:55:46.669Z,40.12
2019-03-03T00:58:51.656Z,51.48
2019-03-03T01:02:08.986Z,42.30
2019-03-03T01:05:26.135Z,43.03
2019-03-03T01:08:30.680Z,57.25
2019-03-03T01:11:32.307Z,44.18
2019-03-03T01:14:49.249Z,45.85
2019-03-03T01:18:00.351Z,43.63
2019-03-03T01:21:03.734Z,54.95
2019-03-03T01:24:12.335Z,50.55
2019-03-03T01:27:08.524Z,65.37
2019-03-03T01:30:04.532Z,56.20
2019-03-03T01:33:01.977Z,57.88
2019-03-03T01:35:58.065Z,129.45
2019-03-03T01:38:54.262Z,127.00
2019-03-03T01:41:51.324Z,158.30
2019-03-03T01:44:47.641Z,151.95
2019-03-03T01:47:43.483Z,147.62
2019-03-03T01:50:39.495Z,108.50
2019-03-03T01:53:35.783Z,95.60
2019-03-03T01:56:31.903Z,117.03
2019-03-03T01:59:28.261Z,100.42
2019-03-03T02:02:24.631Z,104.05
2019-03-03T02:05:21.016Z,98.67
2019-03-03T02:08:17.119Z,116.30
2019-03-03T02:11:13.380Z,106.97
2019-03-03T02:14:09.585Z,107.67
2019-03-03T02:17:07.053Z,133.40
2019-03-03T02:20:03.306Z,110.83
2019-03-03T02:22:59.844Z,124.20
2019-03-03T02:25:56.136Z,127.82
2019-03-03T02:28:56.907Z,129.45
2019-03-03T02:31:52.594Z,146.20
2019-03-03T02:34:48.573Z,156.45
2019-03-03T02:37:45.279Z,140.30
2019-03-03T02:40:41.228Z,134.47
2019-03-03T02:43:45.173Z,124.63
2019-03-03T02:46:41.277Z,128.60
2019-03-03T02:49:37.157Z,142.87
2019-03-03T02:52:33.476Z,161.18
2019-03-03T02:55:29.875Z,130.43
2019-03-03T02:58:26.651Z,144.87
2019-03-03T03:01:28.159Z,108.63
2019-03-03T03:04:24.897Z,113.03
2019-03-03T03:07:44.690Z,109.90
2019-03-03T03:10:56.073Z,118.10
2019-03-03T03:14:03.895Z,116.10
2019-03-03T03:20:04.542Z,119.05
2019-03-03T03:23:21.138Z,111.15
2019-03-03T03:26:35.126Z,120.10
2019-03-03T03:29:43.202Z,115.65
2019-03-03T03:32:46.590Z,104.20
2019-03-03T03:35:52.864Z,88.00
2019-03-03T03:39:16.030Z,99.75
2019-03-03T03:42:36.595Z,102.27
2019-03-03T03:45:50.645Z,111.25
2019-03-03T03:49:07.387Z,115.08
2019-03-03T03:52:22.562Z,111.33
2019-03-03T03:55:36.603Z,133.07
2019-03-03T03:58:35.584Z,124.90
2019-03-03T04:01:52.112Z,137.88
2019-03-03T04:05:18.019Z,128.80
2019-03-03T04:08:34.971Z,136.10
2019-03-03T04:11:48.068Z,143.25
2019-03-03T04:14:58.741Z,138.85
2019-03-03T04:18:02.086Z,139.70
2019-03-03T04:21:03.989Z,131.00
2019-03-03T04:24:15.736Z,116.22
2019-03-03T04:27:29.180Z,117.20
2019-03-03T04:30:44.879Z,123.00
2019-03-03T04:33:50.012Z,109.05
2019-03-03T04:37:00.928Z,119.82
2019-03-03T04:40:10.503Z,87.08
2019-03-03T04:43:38.970Z,105.43
2019-03-03T04:46:55.478Z,93.05
2019-03-03T04:50:04.676Z,92.55
2019-03-03T04:53:16.249Z,114.50
2019-03-03T04:59:15.687Z,112.43
2019-03-03T05:02:31.307Z,121.92
2019-03-03T05:05:56.296Z,108.40
2019-03-03T05:09:05.640Z,109.90
2019-03-03T05:12:40.508Z,97.45
2019-03-03T05:15:52.319Z,102.97
2019-03-03T05:19:21.278Z,95.15
2019-03-03T05:22:17.119Z,82.33
2019-03-03T05:25:13.703Z,125.72
2019-03-03T05:28:09.039Z,86.15
2019-03-03T05:31:04.222Z,77.92
2019-03-03T05:33:59.544Z,93.70
2019-03-03T05:36:54.798Z,106.97
2019-03-03T05:39:50.021Z,118.87
2019-03-03T05:42:44.728Z,83.35
2019-03-03T05:45:41.333Z,87.27
2019-03-03T05:48:36.788Z,93.60
2019-03-03T05:51:32.073Z,82.30
2019-03-03T05:54:26.879Z,99.13
2019-03-03T05:57:21.769Z,72.75
2019-03-03T06:00:17.319Z,84.70
2019-03-03T06:03:14.237Z,89.45
2019-03-03T06:06:09.340Z,95.20
2019-03-03T06:11:56.419Z,88.87
2019-03-03T06:14:51.658Z,85.35
2019-03-03T06:17:46.736Z,80.03
2019-03-03T06:20:42.188Z,86.50
2019-03-03T06:23:37.500Z,67.70
2019-03-03T06:26:32.768Z,70.42
2019-03-03T06:29:27.810Z,76.67
2019-03-03T06:32:22.612Z,81.28
2019-03-03T06:35:17.796Z,74.00
2019-03-03T06:38:12.791Z,76.10
2019-03-03T06:41:07.938Z,71.97
2019-03-03T06:44:03.211Z,85.38
2019-03-03T06:46:58.876Z,83.58
2019-03-03T06:49:53.922Z,70.40
2019-03-03T06:52:49.444Z,80.77
2019-03-03T06:55:45.120Z,74.42
2019-03-03T06:58:40.640Z,59.33
2019-03-03T07:01:35.105Z,71.02
2019-03-03T07:04:30.479Z,59.45
2019-03-03T07:07:25.562Z,55.00
2019-03-03T07:13:12.493Z,63.83
2019-03-03T07:16:08.383Z,56.00
2019-03-03T07:19:03.451Z,55.70
2019-03-03T07:21:58.107Z,67.85
2019-03-03T07:24:52.771Z,60.08
2019-03-03T07:27:47.736Z,61.98
2019-03-03T07:30:42.326Z,64.90
2019-03-03T07:33:38.939Z,66.57
2019-03-03T07:36:33.516Z,48.83
2019-03-03T07:39:28.330Z,56.28
2019-03-03T07:42:22.511Z,57.30
2019-03-03T07:45:16.853Z,55.90
2019-03-03T07:48:11.256Z,69.50
2019-03-03T07:51:05.951Z,65.20
2019-03-03T07:54:00.453Z,60.90
2019-03-03T07:56:54.939Z,56.02
2019-03-03T07:59:49.514Z,50.73
2019-03-03T08:02:44.362Z,50.28
2019-03-03T08:05:38.757Z,53.50
2019-03-03T08:08:33.445Z,51.70
2019-03-03T08:11:28.308Z,66.15
2019-03-03T08:14:22.783Z,63.85
2019-03-03T08:17:17.528Z,47.15
2019-03-03T08:20:12.490Z,45.23
2019-03-03T08:23:07.256Z,47.53
2019-03-03T08:26:01.976Z,46.90
2019-03-03T08:28:57.625Z,40.35
2019-03-03T08:31:52.267Z,55.90
2019-03-03T08:37:37.351Z,44.08
2019-03-03T08:40:32.230Z,42.67
2019-03-03T08:43:33.583Z,42.23
2019-03-03T08:46:52.688Z,58.63
2019-03-03T08:50:12.126Z,41.05
2019-03-03T08:53:23.203Z,38.25
2019-03-03T08:56:25.991Z,36.95
2019-03-03T08:59:32.772Z,38.20
2019-03-03T09:02:48.570Z,33.20
2019-03-03T09:05:53.190Z,32.85
2019-03-03T09:09:11.976Z,41.23
2019-03-03T09:12:29.894Z,38.73
2019-03-03T09:15:37.832Z,34.90
2019-03-03T09:19:00.078Z,30.05
2019-03-03T09:22:07.344Z,35.88
2019-03-03T09:25:27.219Z,39.60
2019-03-03T09:28:57.912Z,31.20
2019-03-03T09:35:14.802Z,27.17
2019-03-03T09:38:30.594Z,36.65
2019-03-03T09:41:42.999Z,47.83
2019-03-03T09:44:51.543Z,58.90
2019-03-03T09:48:14.374Z,39.75
2019-03-03T09:51:21.691Z,35.08
2019-03-03T09:54:34.527Z,28.75
2019-03-03T09:57:36.559Z,37.93
2019-03-03T10:00:49.239Z,28.90
2019-03-03T10:03:58.281Z,36.77
2019-03-03T10:07:13.768Z,41.45
2019-03-03T10:10:15.083Z,26.25
2019-03-03T10:13:33.596Z,39.30
2019-03-03T10:16:40.062Z,27.10
2019-03-03T10:19:46.227Z,40.55
2019-03-03T10:22:58.826Z,39.65
2019-03-03T10:26:15.439Z,35.65
2019-03-03T10:29:27.179Z,35.88
2019-03-03T10:32:48.656Z,25.70
2019-03-03T10:36:01.348Z,30.48
2019-03-03T10:39:20.020Z,27.70
2019-03-03T10:42:30.764Z,31.10
2019-03-03T10:45:43.267Z,27.10
2019-03-03T10:48:58.939Z,24.60
2019-03-03T10:51:59.260Z,29.72
2019-03-03T10:55:10.116Z,27.73
2019-03-03T10:58:22.898Z,28.20
2019-03-03T11:01:25.710Z,27.20
2019-03-03T11:04:39.254Z,26.17
2019-03-03T11:07:49.933Z,25.12
2019-03-03T11:11:09.482Z,26.50
2019-03-03T11:14:24.388Z,22.87
2019-03-03T11:17:33.229Z,31.35
2019-03-03T11:20:49.111Z,27.10
2019-03-03T11:24:04.805Z,23.30
2019-03-03T11:27:21.082Z,27.55
2019-03-03T11:30:39.462Z,26.75
2019-03-03T11:33:58.028Z,28.90
2019-03-03T11:37:14.509Z,21.83
2019-03-03T11:40:19.117Z,27.87
2019-03-03T11:43:20.061Z,34.55
2019-03-03T11:46:35.958Z,29.60
2019-03-03T11:49:56.999Z,28.62
2019-03-03T11:52:58.337Z,21.60
2019-03-03T11:56:13.723Z,23.70
2019-03-03T11:59:32.124Z,24.43
2019-03-03T12:02:37.694Z,30.05
2019-03-03T12:05:50.096Z,25.80
2019-03-03T12:08:54.535Z,27.65
2019-03-03T12:12:21.797Z,26.02
2019-03-03T12:15:35.110Z,24.32
2019-03-03T12:18:47.768Z,22.85
2019-03-03T12:22:12.220Z,29.75
2019-03-03T12:25:28.328Z,26.60
2019-03-03T12:28:45.116Z,28.65
2019-03-03T12:32:00.734Z,26.45
2019-03-03T12:35:14.534Z,27.87
2019-03-03T12:38:21.871Z,22.93
2019-03-03T12:41:52.477Z,27.87
2019-03-03T12:45:02.862Z,23.22
2019-03-03T12:48:14.360Z,24.92
2019-03-03T12:51:29.792Z,23.95
2019-03-03T12:54:40.029Z,25.97
2019-03-03T12:57:51.204Z,27.37
2019-03-03T13:00:58.658Z,21.82
2019-03-03T13:04:14.253Z,23.25
2019-03-03T13:07:23.355Z,23.32
2019-03-03T13:10:45.083Z,39.63
2019-03-03T13:13:47.837Z,24.25
2019-03-03T13:17:00.123Z,27.93
2019-03-03T13:20:07.007Z,23.83
2019-03-03T13:23:10.921Z,27.37
2019-03-03T13:26:30.805Z,25.60
2019-03-03T13:29:52.578Z,26.85
2019-03-03T13:32:57.635Z,29.32
2019-03-03T13:39:20.403Z,28.45
2019-03-03T13:42:33.241Z,30.37
2019-03-03T13:45:30.006Z,33.63
2019-03-03T13:48:24.953Z,24.65
2019-03-03T13:51:19.455Z,26.62
2019-03-03T13:54:14.128Z,24.40
2019-03-03T13:57:08.347Z,25.50
2019-03-03T14:00:02.683Z,23.57
2019-03-03T14:02:57.869Z,20.35
2019-03-03T14:05:52.371Z,25.80
2019-03-03T14:08:46.935Z,25.27
2019-03-03T14:11:41.805Z,25.17
2019-03-03T14:14:36.502Z,22.48
2019-03-03T14:17:31.365Z,21.75
2019-03-03T14:20:26.557Z,23.40
2019-03-03T14:23:21.226Z,26.73
2019-03-03T14:26:16.298Z,27.37
2019-03-03T14:29:11.022Z,30.68
2019-03-03T14:32:06.791Z,27.73
2019-03-03T14:35:01.126Z,33.98
2019-03-03T14:37:56.618Z,27.02
2019-03-03T14:40:51.276Z,27.35
2019-03-03T14:43:46.656Z,26.55
2019-03-03T14:46:41.112Z,34.23
2019-03-03T14:49:35.666Z,33.00
2019-03-03T14:52:30.294Z,33.02
2019-03-03T14:55:24.890Z,36.65
2019-03-03T14:58:19.434Z,31.30
2019-03-03T15:01:14.264Z,26.33
2019-03-03T15:04:08.847Z,33.20
2019-03-03T15:07:03.543Z,30.60
2019-03-03T15:09:58.051Z,33.45
2019-03-03T15:12:52.639Z,33.75
2019-03-03T15:15:48.187Z,35.60
2019-03-03T15:18:43.404Z,29.50
2019-03-03T15:21:38.088Z,39.25
2019-03-03T15:24:34.405Z,34.75
2019-03-03T15:27:29.427Z,32.85
2019-03-03T15:30:24.624Z,28.57
2019-03-03T15:33:19.369Z,34.90
2019-03-03T15:36:13.901Z,36.95
2019-03-03T15:39:10.498Z,30.02
2019-03-03T15:42:05.320Z,32.40
2019-03-03T15:45:01.047Z,35.55
2019-03-03T15:47:55.791Z,32.42
2019-03-03T15:50:50.834Z,36.15
2019-03-03T15:53:45.635Z,33.60
2019-03-03T15:56:40.604Z,35.30
2019-03-03T15:59:35.442Z,30.02
2019-03-03T16:02:29.784Z,30.92
2019-03-03T16:05:22.867Z,35.40
2019-03-03T16:08:17.621Z,37.70
2019-03-03T16:11:12.205Z,32.23
2019-03-03T16:14:06.647Z,28.87
2019-03-03T16:17:01.163Z,32.20
2019-03-03T16:22:42.019Z,33.38
2019-03-03T16:25:36.419Z,31.45
2019-03-03T16:28:30.999Z,31.05
2019-03-03T16:31:25.570Z,29.77
2019-03-03T16:34:20.572Z,29.50
2019-03-03T16:37:16.768Z,35.92
2019-03-03T16:40:12.776Z,38.42
2019-03-03T16:43:07.177Z,37.25
2019-03-03T16:46:01.828Z,28.90
2019-03-03T16:48:57.076Z,28.98
2019-03-03T16:51:52.637Z,33.80
2019-03-03T16:54:47.452Z,38.80
2019-03-03T16:57:41.986Z,32.13
2019-03-03T17:00:36.304Z,37.35
2019-03-03T17:03:30.702Z,35.30
2019-03-03T17:06:25.322Z,42.08
2019-03-03T17:09:20.969Z,41.50
2019-03-03T17:12:15.467Z,37.05
2019-03-03T17:15:11.218Z,46.83
2019-03-03T17:18:04.520Z,43.28
2019-03-03T17:20:58.982Z,39.63
2019-03-03T17:23:54.023Z,48.52
2019-03-03T17:26:48.457Z,53.75
2019-03-03T17:35:24.839Z,42.70
2019-03-03T17:38:19.630Z,47.83
2019-03-03T17:41:15.996Z,34.98
2019-03-03T17:44:10.357Z,36.45
2019-03-03T17:47:05.597Z,44.45
2019-03-03T17:50:00.425Z,37.00
2019-03-03T17:52:55.440Z,33.55
2019-03-03T17:55:49.917Z,36.58
2019-03-03T17:58:44.641Z,41.70
2019-03-03T18:01:39.575Z,41.13
2019-03-03T18:04:34.364Z,42.98
2019-03-03T18:07:28.286Z,41.18
2019-03-03T18:10:22.656Z,37.63
2019-03-03T18:13:21.400Z,38.40
2019-03-03T18:16:17.232Z,41.15
2019-03-03T18:19:13.128Z,38.25
2019-03-03T18:22:07.676Z,36.28
2019-03-03T18:25:02.799Z,37.25
2019-03-03T18:27:56.250Z,50.88
2019-03-03T18:30:50.932Z,48.98
2019-03-03T18:33:45.655Z,48.17
2019-03-03T18:36:38.499Z,52.15
2019-03-03T18:39:33.384Z,32.80
2019-03-03T18:42:28.444Z,40.23
2019-03-03T18:45:23.244Z,42.75
2019-03-03T18:48:18.039Z,43.05
2019-03-03T18:51:12.982Z,37.40
2019-03-03T18:54:10.385Z,42.57
2019-03-03T18:57:05.561Z,41.23
2019-03-03T18:59:59.971Z,56.75
2019-03-03T19:02:58.223Z,47.87
2019-03-03T19:05:55.619Z,42.53
2019-03-03T19:08:50.254Z,45.27
2019-03-03T19:11:45.024Z,58.73
2019-03-03T19:14:39.532Z,44.80
2019-03-03T19:17:34.115Z,37.38
2019-03-03T19:20:28.824Z,50.48
2019-03-03T19:23:23.377Z,64.70
2019-03-03T19:26:21.604Z,55.98
2019-03-03T19:29:16.006Z,41.75
2019-03-03T19:32:10.489Z,45.35
2019-03-03T19:35:04.885Z,60.40
2019-03-03T19:37:59.249Z,46.30
2019-03-03T19:40:54.544Z,49.55
2019-03-03T19:43:49.585Z,45.17
2019-03-03T19:46:45.097Z,41.30
2019-03-03T19:49:40.235Z,55.90
2019-03-03T19:52:35.755Z,51.70
2019-03-03T19:55:31.020Z,52.15
2019-03-03T19:58:26.034Z,54.90
2019-03-03T20:01:20.794Z,56.00
2019-03-03T20:04:15.698Z,52.15
2019-03-03T20:07:10.508Z,58.40
2019-03-03T20:10:05.983Z,59.35
2019-03-03T20:13:00.249Z,60.05
2019-03-03T20:15:55.142Z,56.45
2019-03-03T20:18:50.394Z,73.50
2019-03-03T20:21:45.433Z,59.03
2019-03-03T20:24:40.842Z,50.63
2019-03-03T20:27:35.917Z,54.10
2019-03-03T20:30:30.901Z,53.13
2019-03-03T20:33:26.364Z,54.03
2019-03-03T20:36:21.283Z,55.78
2019-03-03T20:39:16.625Z,52.27
2019-03-03T20:42:11.789Z,61.23
2019-03-03T20:45:06.720Z,50.60
2019-03-03T20:48:01.792Z,60.92
2019-03-03T20:50:56.941Z,60.28
2019-03-03T20:53:52.985Z,67.55
2019-03-03T20:56:47.758Z,60.28
2019-03-03T20:59:42.831Z,63.13
2019-03-03T21:02:37.773Z,57.65
2019-03-03T21:05:33.372Z,58.65
2019-03-03T21:08:28.528Z,60.35
2019-03-03T21:11:23.826Z,62.73
2019-03-03T21:14:18.995Z,60.70
2019-03-03T21:17:13.875Z,57.10
2019-03-03T21:20:09.611Z,64.72
2019-03-03T21:23:04.595Z,66.77
2019-03-03T21:26:00.060Z,68.90
2019-03-03T21:28:55.041Z,63.38
2019-03-03T21:31:50.240Z,60.40
2019-03-03T21:34:45.644Z,55.92
2019-03-03T21:37:41.282Z,63.98
2019-03-03T21:40:37.207Z,66.15
2019-03-03T21:43:32.752Z,61.90
2019-03-03T21:46:27.528Z,61.95
2019-03-03T21:49:23.128Z,47.98
2019-03-03T21:52:17.995Z,60.23
2019-03-03T21:55:13.877Z,58.90
2019-03-03T21:58:10.571Z,48.77
2019-03-03T22:01:07.722Z,49.90
2019-03-03T22:04:02.532Z,58.85
2019-03-03T22:06:58.161Z,66.70
2019-03-03T22:09:53.485Z,60.30
2019-03-03T22:12:49.277Z,63.13
2019-03-03T22:15:44.662Z,59.85
2019-03-03T22:18:39.943Z,59.25
2019-03-03T22:21:35.408Z,62.10
2019-03-03T22:24:30.633Z,52.70
2019-03-03T22:27:27.327Z,56.95
2019-03-03T22:30:22.846Z,67.47
2019-03-03T22:33:18.220Z,53.05
2019-03-03T22:36:13.485Z,72.40
2019-03-03T22:39:09.848Z,93.80
2019-03-03T22:42:04.888Z,60.78
2019-03-03T22:44:59.922Z,69.75
2019-03-03T22:47:55.567Z,83.15
2019-03-03T22:50:50.840Z,74.13
2019-03-03T22:53:45.745Z,82.90
2019-03-03T22:56:41.017Z,70.87
2019-03-03T22:59:36.135Z,71.20
2019-03-03T23:02:31.179Z,84.37
2019-03-03T23:05:48.979Z,93.15
2019-03-03T23:08:58.567Z,94.32
2019-03-03T23:12:10.340Z,68.80
2019-03-03T23:15:46.118Z,82.60
2019-03-03T23:19:22.751Z,87.55
2019-03-03T23:22:54.260Z,81.22
2019-03-03T23:25:56.638Z,79.40
2019-03-03T23:28:51.762Z,78.67
2019-03-03T23:31:47.003Z,70.13
2019-03-03T23:34:42.251Z,76.83
2019-03-03T23:37:37.348Z,81.17
2019-03-03T23:40:32.454Z,87.57
2019-03-03T23:43:27.168Z,74.17
2019-03-03T23:46:21.570Z,80.32
2019-03-03T23:49:16.071Z,88.55
2019-03-03T23:52:12.424Z,77.70
2019-03-03T23:55:06.978Z,79.47
2019-03-03T23:58:01.510Z,84.00
